CheckWX is a tool to help pilots better visualize weather data.  It is not intended as a substitute for an official pre-flight weather briefing.

05:52:53 UTC

KSKF TAF
Kelly Field Airport
San Antonio, Texas, USA
TAF KSKF 250213Z 2502/2608 15009KT 9999 SCT035 QNH2995INS BECMG 2505/2506 15006KT 8000 BR FEW007 OVC015 QNH2995INS TEMPO 2507/2509 6000 BR BKN006 OVC010 BECMG 2509/2510 16005KT 4800 BR OVC005 QNH2998INS BECMG 2514/2515 VRB05KT 9999 NSW BKN007 BKN015 QNH3009INS BECMG 2517/2518 03009KT 9999 BKN020 QNH3005INS BECMG 2521/2522 04012KT 9999 SCT035 QNH3004INS TX27/2521Z TN17/2513Z

Mar-25@
02:00 UTC

Mar-25 @ 02:00 UTC

Mar-25@
05:00 UTC

Mar-25 @ 05:00 UTC

TAF KSKF 250213Z 2502/2608 15009KT 9999 SCT035 QNH2995INS

Expired

Wind
  • 150° at 9 KTS
Cloud Levels
  • Scattered at 3,500' AGL

Mar-25@
05:00 UTC

Mar-25 @ 05:00 UTC

Mar-25@
09:00 UTC

Mar-25 @ 09:00 UTC

BECMG 2505/2506 15006KT 8000 BR FEW007 OVC015 QNH2995INS

Becoming

Becoming Conditions expected by Mon, Mar 25, 2019 @ 06:00 UTC

Wind
  • 150° at 6 KTS
Conditions
Mist
Cloud Levels
  • Few at 700' AGL
  • Overcast at 1,500' AGL

Mar-25@
07:00 UTC

Mar-25 @ 07:00 UTC

Mar-25@
09:00 UTC

Mar-25 @ 09:00 UTC

TEMPO 2507/2509 6000 BR BKN006 OVC010

Temporary

Temporary Changes expected for less than half the time period

Conditions
Mist
Cloud Levels
  • Broken at 600' AGL
  • Overcast at 1,000' AGL

Mar-25@
09:00 UTC

Mar-25 @ 09:00 UTC

Mar-25@
14:00 UTC

Mar-25 @ 14:00 UTC

BECMG 2509/2510 16005KT 4800 BR OVC005 QNH2998INS

Becoming

Becoming Conditions expected by Mon, Mar 25, 2019 @ 10:00 UTC

Wind
  • 160° at 5 KTS
Conditions
Mist
Cloud Levels
  • Overcast at 500' AGL

Mar-25@
14:00 UTC

Mar-25 @ 14:00 UTC

Mar-25@
17:00 UTC

Mar-25 @ 17:00 UTC

BECMG 2514/2515 VRB05KT 9999 NSW BKN007 BKN015 QNH3009INS

Becoming

Becoming Conditions expected by Mon, Mar 25, 2019 @ 15:00 UTC

Wind
  • Variable at 5 KTS
Conditions
No significant weather
Cloud Levels
  • Broken at 700' AGL
  • Broken at 1,500' AGL

Mar-25@
17:00 UTC

Mar-25 @ 17:00 UTC

Mar-25@
21:00 UTC

Mar-25 @ 21:00 UTC

BECMG 2517/2518 03009KT 9999 BKN020 QNH3005INS

Becoming

Becoming Conditions expected by Mon, Mar 25, 2019 @ 18:00 UTC

Wind
  • 030° at 9 KTS
Conditions
No significant weather
Cloud Levels
  • Broken at 2,000' AGL

Mar-25@
21:00 UTC

Mar-25 @ 21:00 UTC

Mar-26@
08:00 UTC

Mar-26 @ 08:00 UTC

BECMG 2521/2522 04012KT 9999 SCT035 QNH3004INS TX27/2521Z TN17/2513Z

Becoming

Becoming Conditions expected by Mon, Mar 25, 2019 @ 22:00 UTC

Wind
  • 040° at 12 KTS
Conditions
No significant weather
Cloud Levels
  • Scattered at 3,500' AGL